createdAt,value
2022-08-26T00:01:33.297Z,21.62
2022-08-26T00:04:01.317Z,21.63
2022-08-26T00:06:28.728Z,21.64
2022-08-26T00:08:55.195Z,21.48
2022-08-26T00:11:26.822Z,21.50
2022-08-26T00:13:54.689Z,21.44
2022-08-26T00:16:22.047Z,21.39
2022-08-26T00:18:48.602Z,21.40
2022-08-26T00:21:15.949Z,21.46
2022-08-26T00:23:42.561Z,21.52
2022-08-26T00:26:08.999Z,21.50
2022-08-26T00:28:37.974Z,21.41
2022-08-26T00:31:07.262Z,21.48
2022-08-26T00:33:33.802Z,21.45
2022-08-26T00:36:01.619Z,21.44
2022-08-26T00:38:30.249Z,21.45
2022-08-26T00:40:57.389Z,21.43
2022-08-26T00:43:25.127Z,21.42
2022-08-26T00:46:04.723Z,21.40
2022-08-26T00:48:33.851Z,21.41
2022-08-26T00:51:11.699Z,21.39
2022-08-26T00:53:44.734Z,21.30
2022-08-26T00:56:20.834Z,21.30
2022-08-26T00:58:48.091Z,21.34
2022-08-26T01:01:15.089Z,21.37
2022-08-26T01:03:43.241Z,21.42
2022-08-26T01:06:12.626Z,21.40
2022-08-26T01:08:39.842Z,21.26
2022-08-26T01:11:06.823Z,21.31
2022-08-26T01:13:36.348Z,21.32
2022-08-26T01:16:05.431Z,21.34
2022-08-26T01:18:33.301Z,21.34
2022-08-26T01:21:06.087Z,21.30
2022-08-26T01:23:41.112Z,21.30
2022-08-26T01:26:27.563Z,21.23
2022-08-26T01:28:58.060Z,21.19
2022-08-26T01:31:31.080Z,21.15
2022-08-26T01:34:19.635Z,20.98
2022-08-26T01:36:51.426Z,20.95
2022-08-26T01:39:18.862Z,21.05
2022-08-26T01:41:46.178Z,21.17
2022-08-26T01:44:17.191Z,21.21
2022-08-26T01:46:46.310Z,21.18
2022-08-26T01:49:14.186Z,21.14
2022-08-26T01:51:44.408Z,21.13
2022-08-26T01:54:13.755Z,21.09
2022-08-26T01:56:40.586Z,20.97
2022-08-26T01:59:10.790Z,20.89
2022-08-26T02:01:38.859Z,20.93
2022-08-26T02:04:10.896Z,20.84
2022-08-26T02:06:38.615Z,20.86
2022-08-26T02:09:07.879Z,20.88
2022-08-26T02:11:35.092Z,20.83
2022-08-26T02:14:19.178Z,20.88
2022-08-26T02:16:48.909Z,20.87
2022-08-26T02:19:24.571Z,20.86
2022-08-26T02:21:52.229Z,20.95
2022-08-26T02:24:22.799Z,21.04
2022-08-26T02:26:50.945Z,21.07
2022-08-26T02:29:25.077Z,21.09
2022-08-26T02:31:52.462Z,21.10
2022-08-26T02:34:26.537Z,21.08
2022-08-26T02:37:01.940Z,21.10
2022-08-26T02:39:29.773Z,20.96
2022-08-26T02:41:56.656Z,20.86
2022-08-26T02:44:23.173Z,20.83
2022-08-26T02:46:49.661Z,20.83
2022-08-26T02:49:17.321Z,20.85
2022-08-26T02:51:43.783Z,20.88
2022-08-26T02:54:10.289Z,20.85
2022-08-26T02:56:37.377Z,20.76
2022-08-26T02:59:04.111Z,20.82
2022-08-26T03:01:34.207Z,20.75
2022-08-26T03:04:02.449Z,20.79
2022-08-26T03:06:29.613Z,20.83
2022-08-26T03:08:56.587Z,20.79
2022-08-26T03:11:23.843Z,20.73
2022-08-26T03:13:51.792Z,20.79
2022-08-26T03:16:18.827Z,20.80
2022-08-26T03:18:51.989Z,20.81
2022-08-26T03:21:19.977Z,20.84
2022-08-26T03:23:46.516Z,20.87
2022-08-26T03:26:15.161Z,20.85
2022-08-26T03:29:01.542Z,20.65
2022-08-26T03:31:29.663Z,20.61
2022-08-26T03:33:59.599Z,20.56
2022-08-26T03:36:26.478Z,20.56
2022-08-26T03:38:53.459Z,20.59
2022-08-26T03:41:21.326Z,20.79
2022-08-26T03:43:50.621Z,20.81
2022-08-26T03:46:18.550Z,20.83
2022-08-26T03:48:45.746Z,20.84
2022-08-26T03:51:19.100Z,20.86
2022-08-26T03:53:46.433Z,20.86
2022-08-26T03:56:12.877Z,20.69
2022-08-26T03:58:39.611Z,20.64
2022-08-26T04:01:09.397Z,20.78
2022-08-26T04:03:54.492Z,20.82
2022-08-26T04:06:20.922Z,20.83
2022-08-26T04:08:48.023Z,20.81
2022-08-26T04:11:28.447Z,20.77
2022-08-26T04:13:59.471Z,20.78
2022-08-26T04:16:28.345Z,20.79
2022-08-26T04:18:56.475Z,20.82
2022-08-26T04:21:23.606Z,20.81
2022-08-26T04:23:50.416Z,20.81
2022-08-26T04:26:19.698Z,20.83
2022-08-26T04:28:50.791Z,20.84
2022-08-26T04:31:18.878Z,20.78
2022-08-26T04:33:47.548Z,20.76
2022-08-26T04:36:16.182Z,20.68
2022-08-26T04:38:43.103Z,20.61
2022-08-26T04:41:15.630Z,20.59
2022-08-26T04:43:44.733Z,20.64
2022-08-26T04:46:13.073Z,20.68
2022-08-26T04:48:40.894Z,20.63
2022-08-26T04:51:07.623Z,20.62
2022-08-26T04:53:34.786Z,20.67
2022-08-26T04:56:01.320Z,20.71
2022-08-26T04:58:30.367Z,20.74
2022-08-26T05:00:56.943Z,20.87
2022-08-26T05:03:24.606Z,20.80
2022-08-26T05:05:51.419Z,20.82
2022-08-26T05:08:19.598Z,20.91
2022-08-26T05:10:48.791Z,20.88
2022-08-26T05:13:18.078Z,21.00
2022-08-26T05:15:48.299Z,21.05
2022-08-26T05:18:20.046Z,21.12
2022-08-26T05:20:49.860Z,21.13
2022-08-26T05:23:17.606Z,21.30
2022-08-26T05:25:47.148Z,21.41
2022-08-26T05:28:16.827Z,21.54
2022-08-26T05:30:44.490Z,21.71
2022-08-26T05:33:12.025Z,21.87
2022-08-26T05:35:39.106Z,22.02
2022-08-26T05:38:12.855Z,22.09
2022-08-26T05:40:44.560Z,22.27
2022-08-26T05:43:11.964Z,22.36
2022-08-26T05:45:46.173Z,22.46
2022-08-26T05:48:14.973Z,22.55
2022-08-26T05:50:46.227Z,22.59
2022-08-26T05:53:14.471Z,22.83
2022-08-26T05:55:45.443Z,23.04
2022-08-26T05:58:13.111Z,23.20
2022-08-26T06:00:40.299Z,23.32
2022-08-26T06:03:08.630Z,23.49
2022-08-26T06:05:41.837Z,23.59
2022-08-26T06:08:11.715Z,23.74
2022-08-26T06:10:45.225Z,23.82
2022-08-26T06:13:13.015Z,24.03
2022-08-26T06:15:47.561Z,24.07
2022-08-26T06:18:17.030Z,24.05
2022-08-26T06:20:57.354Z,24.17
2022-08-26T06:23:45.277Z,24.33
2022-08-26T06:26:13.132Z,24.35
2022-08-26T06:28:39.588Z,24.36
2022-08-26T06:31:06.232Z,24.43
2022-08-26T06:33:33.361Z,24.49
2022-08-26T06:36:01.060Z,24.75
2022-08-26T06:38:27.882Z,25.04
2022-08-26T06:40:59.689Z,25.26
2022-08-26T06:43:28.090Z,25.40
2022-08-26T06:46:07.211Z,25.54
2022-08-26T06:48:34.373Z,25.54
2022-08-26T06:51:07.320Z,25.62
2022-08-26T06:53:33.762Z,25.76
2022-08-26T06:56:04.104Z,25.86
2022-08-26T06:58:31.298Z,25.97
2022-08-26T07:01:03.108Z,26.10
2022-08-26T07:03:39.591Z,26.20
2022-08-26T07:06:06.368Z,26.37
2022-08-26T07:08:33.978Z,26.57
2022-08-26T07:11:05.370Z,26.79
2022-08-26T07:13:31.845Z,26.92
2022-08-26T07:16:02.942Z,26.96
2022-08-26T07:18:30.858Z,27.16
2022-08-26T07:20:57.315Z,27.26
2022-08-26T07:23:23.742Z,27.52
2022-08-26T07:25:50.810Z,27.61
2022-08-26T07:28:17.260Z,27.67
2022-08-26T07:30:43.770Z,27.81
2022-08-26T07:33:10.234Z,27.87
2022-08-26T07:35:37.836Z,28.08
2022-08-26T07:38:04.310Z,28.07
2022-08-26T07:40:32.024Z,28.23
2022-08-26T07:42:58.542Z,28.38
2022-08-26T07:45:27.716Z,28.49
2022-08-26T07:47:54.421Z,28.71
2022-08-26T07:50:22.369Z,28.81
2022-08-26T07:53:10.757Z,29.06
2022-08-26T07:55:37.479Z,29.19
2022-08-26T07:58:05.563Z,29.26
2022-08-26T08:00:33.267Z,29.41
2022-08-26T08:03:02.656Z,29.32
2022-08-26T08:05:33.596Z,29.38
2022-08-26T08:08:26.306Z,29.55
2022-08-26T08:10:49.063Z,29.56
2022-08-26T08:13:15.794Z,29.73
2022-08-26T08:15:42.297Z,29.94
2022-08-26T08:18:15.299Z,29.90
2022-08-26T08:20:47.684Z,29.85
2022-08-26T08:23:25.805Z,29.94
2022-08-26T08:26:01.568Z,30.29
2022-08-26T08:28:28.635Z,30.33
2022-08-26T08:30:56.003Z,30.44
2022-08-26T08:33:22.609Z,30.25
2022-08-26T08:35:49.206Z,30.16
2022-08-26T08:38:16.601Z,30.45
2022-08-26T08:40:45.672Z,30.48
2022-08-26T08:43:24.703Z,30.51
2022-08-26T08:45:57.619Z,30.57
2022-08-26T08:48:29.477Z,30.65
2022-08-26T08:51:08.488Z,30.71
2022-08-26T08:53:39.176Z,30.78
2022-08-26T08:56:39.900Z,31.04
2022-08-26T08:59:12.804Z,30.99
2022-08-26T09:01:52.451Z,31.13
2022-08-26T09:05:02.916Z,31.08
2022-08-26T09:07:37.521Z,30.90
2022-08-26T09:10:28.891Z,30.64
2022-08-26T09:12:55.514Z,30.74
2022-08-26T09:15:30.330Z,30.95
2022-08-26T09:18:10.921Z,30.95
2022-08-26T09:20:49.484Z,31.24
2022-08-26T09:23:17.165Z,31.11
2022-08-26T09:26:00.308Z,30.67
2022-08-26T09:28:30.308Z,30.56
2022-08-26T09:31:13.122Z,30.39
2022-08-26T09:33:41.105Z,30.50
2022-08-26T09:36:34.433Z,30.75
2022-08-26T09:39:29.684Z,30.72
2022-08-26T09:42:11.759Z,30.85
2022-08-26T09:44:59.496Z,30.99
2022-08-26T09:47:28.516Z,31.02
2022-08-26T09:50:21.548Z,30.92
2022-08-26T09:53:09.843Z,31.06
2022-08-26T09:55:41.991Z,30.84
2022-08-26T09:58:13.695Z,30.90
2022-08-26T10:00:43.573Z,30.87
2022-08-26T10:03:15.603Z,30.67
2022-08-26T10:05:54.129Z,30.70
2022-08-26T10:08:23.740Z,30.55
2022-08-26T10:10:53.353Z,30.54
2022-08-26T10:13:40.988Z,30.68
2022-08-26T10:16:25.480Z,30.92
2022-08-26T10:19:10.511Z,30.77
2022-08-26T10:21:44.933Z,30.74
2022-08-26T10:24:17.770Z,30.70
2022-08-26T10:27:03.777Z,30.70
2022-08-26T10:29:47.393Z,30.62
2022-08-26T10:32:21.737Z,30.62
2022-08-26T10:34:48.224Z,30.74
2022-08-26T10:37:19.241Z,30.64
2022-08-26T10:39:59.057Z,30.70
2022-08-26T10:42:35.438Z,31.02
2022-08-26T10:45:11.665Z,31.24
2022-08-26T10:48:03.420Z,31.22
2022-08-26T10:50:38.651Z,31.14
2022-08-26T10:53:25.221Z,31.25
2022-08-26T10:56:18.932Z,30.90
2022-08-26T10:58:57.720Z,31.01
2022-08-26T11:01:44.182Z,30.48
2022-08-26T11:04:35.334Z,30.37
2022-08-26T11:07:41.760Z,30.11
2022-08-26T11:10:09.854Z,29.95
2022-08-26T11:12:36.223Z,29.58
2022-08-26T11:15:13.316Z,28.90
2022-08-26T11:17:46.162Z,29.06
2022-08-26T11:20:27.739Z,28.85
2022-08-26T11:22:56.559Z,28.99
2022-08-26T11:25:30.033Z,28.84
2022-08-26T11:27:59.830Z,28.67
2022-08-26T11:30:42.656Z,28.33
2022-08-26T11:33:10.407Z,28.05
2022-08-26T11:35:37.492Z,27.71
2022-08-26T11:38:28.199Z,27.31
2022-08-26T11:40:59.703Z,26.75
2022-08-26T11:43:30.473Z,26.86
2022-08-26T11:46:05.730Z,26.85
2022-08-26T11:48:36.803Z,26.52
2022-08-26T11:51:24.435Z,26.26
2022-08-26T11:53:51.369Z,26.07
2022-08-26T11:56:28.766Z,25.75
2022-08-26T11:59:02.153Z,25.64
2022-08-26T12:01:35.487Z,25.32
2022-08-26T12:04:07.970Z,25.28
2022-08-26T12:06:43.353Z,25.05
2022-08-26T12:09:20.638Z,25.03
2022-08-26T12:11:47.150Z,24.70
2022-08-26T12:14:20.786Z,24.50
2022-08-26T12:16:47.737Z,23.99
2022-08-26T12:19:32.998Z,23.65
2022-08-26T12:22:23.532Z,23.73
2022-08-26T12:24:58.393Z,23.87
2022-08-26T12:27:39.900Z,23.68
2022-08-26T12:30:18.003Z,23.84
2022-08-26T12:32:57.642Z,23.87
2022-08-26T12:35:25.609Z,23.78
2022-08-26T12:37:54.156Z,23.88
2022-08-26T12:40:46.125Z,23.92
2022-08-26T12:43:34.166Z,23.87
2022-08-26T12:46:00.679Z,23.98
2022-08-26T12:48:33.582Z,23.50
2022-08-26T12:51:00.666Z,23.39
2022-08-26T12:53:35.196Z,23.60
2022-08-26T12:56:20.606Z,23.67
2022-08-26T12:59:01.024Z,23.63
2022-08-26T13:01:27.792Z,23.53
2022-08-26T13:03:54.407Z,23.52
2022-08-26T13:06:20.771Z,23.75
2022-08-26T13:08:48.716Z,23.64
2022-08-26T13:11:20.486Z,23.51
2022-08-26T13:13:51.643Z,23.53
2022-08-26T13:16:19.644Z,23.45
2022-08-26T13:19:01.749Z,23.55
2022-08-26T13:21:37.580Z,23.44
2022-08-26T13:24:35.765Z,23.31
2022-08-26T13:27:03.573Z,23.20
2022-08-26T13:29:30.007Z,23.13
2022-08-26T13:31:57.906Z,23.04
2022-08-26T13:34:24.774Z,23.07
2022-08-26T13:36:54.080Z,22.97
2022-08-26T13:39:22.099Z,23.03
2022-08-26T13:41:48.627Z,22.86
2022-08-26T13:44:15.082Z,23.07
2022-08-26T13:46:42.050Z,23.07
2022-08-26T13:49:08.879Z,23.16
2022-08-26T13:51:36.043Z,23.07
2022-08-26T13:54:02.480Z,23.22
2022-08-26T13:56:29.607Z,23.16
2022-08-26T13:58:57.819Z,22.90
2022-08-26T14:01:24.765Z,22.82
2022-08-26T14:03:51.431Z,22.64
2022-08-26T14:06:19.042Z,22.56
2022-08-26T14:08:46.929Z,22.61
2022-08-26T14:11:13.565Z,22.79
2022-08-26T14:13:40.419Z,22.49
2022-08-26T14:16:27.227Z,22.41
2022-08-26T14:18:54.081Z,22.35
2022-08-26T14:21:20.881Z,22.33
2022-08-26T14:23:47.648Z,22.23
2022-08-26T14:26:19.081Z,22.31
2022-08-26T14:28:57.209Z,22.44
2022-08-26T14:31:24.291Z,22.35
2022-08-26T14:33:51.102Z,21.94
2022-08-26T14:36:31.953Z,21.98
2022-08-26T14:39:00.805Z,21.94
2022-08-26T14:41:28.448Z,21.98
2022-08-26T14:44:08.016Z,22.07
2022-08-26T14:46:43.303Z,22.18
2022-08-26T14:49:10.667Z,22.24
2022-08-26T14:51:38.131Z,22.13
2022-08-26T14:54:13.449Z,22.29
2022-08-26T14:56:44.706Z,22.33
2022-08-26T14:59:11.692Z,22.34
2022-08-26T15:01:38.223Z,22.17
2022-08-26T15:04:04.767Z,22.00
2022-08-26T15:06:32.022Z,21.71
2022-08-26T15:09:08.367Z,21.66
2022-08-26T15:11:35.066Z,21.60
2022-08-26T15:14:02.255Z,21.53
2022-08-26T15:16:29.192Z,21.54
2022-08-26T15:18:56.455Z,21.63
2022-08-26T15:21:23.609Z,21.66
2022-08-26T15:23:51.919Z,21.59
2022-08-26T15:26:19.541Z,21.57
2022-08-26T15:28:46.488Z,21.44
2022-08-26T15:31:13.025Z,21.51
2022-08-26T15:33:40.312Z,21.64
2022-08-26T15:36:07.897Z,21.74
2022-08-26T15:38:38.895Z,21.73
2022-08-26T15:41:08.511Z,21.83
2022-08-26T15:43:36.807Z,21.80
2022-08-26T15:46:03.539Z,21.85
2022-08-26T15:48:30.032Z,21.77
2022-08-26T15:51:00.479Z,21.78
2022-08-26T15:53:29.403Z,21.73
2022-08-26T15:55:56.935Z,21.75
2022-08-26T15:58:25.121Z,21.69
2022-08-26T16:00:54.876Z,21.72
2022-08-26T16:03:21.478Z,21.79
2022-08-26T16:05:48.395Z,21.83
2022-08-26T16:08:15.392Z,21.85
2022-08-26T16:10:49.780Z,21.88
2022-08-26T16:13:19.199Z,21.95
2022-08-26T16:15:47.456Z,21.99
2022-08-26T16:18:15.386Z,22.05
2022-08-26T16:21:05.004Z,21.88
2022-08-26T16:23:37.124Z,21.94
2022-08-26T16:26:11.823Z,22.03
2022-08-26T16:28:38.933Z,22.06
2022-08-26T16:31:06.240Z,22.08
2022-08-26T16:33:32.835Z,22.18
2022-08-26T16:35:59.262Z,22.23
2022-08-26T16:38:25.702Z,22.22
2022-08-26T16:40:52.124Z,22.26
2022-08-26T16:43:18.584Z,22.26
2022-08-26T16:45:45.006Z,22.24
2022-08-26T16:48:11.466Z,22.26
2022-08-26T16:50:40.568Z,22.18
2022-08-26T16:53:07.824Z,22.21
2022-08-26T16:55:34.939Z,22.22
2022-08-26T16:58:01.443Z,22.13
2022-08-26T17:00:31.961Z,22.18
2022-08-26T17:03:00.197Z,22.17
2022-08-26T17:05:28.123Z,22.12
2022-08-26T17:07:56.870Z,22.11
2022-08-26T17:10:24.779Z,22.08
2022-08-26T17:12:51.813Z,22.06
2022-08-26T17:15:18.771Z,22.05
2022-08-26T17:17:45.343Z,22.06
2022-08-26T17:20:16.434Z,22.07
2022-08-26T17:22:47.902Z,22.07
2022-08-26T17:25:20.472Z,22.08
2022-08-26T17:27:46.992Z,22.11
2022-08-26T17:30:14.064Z,22.07
2022-08-26T17:32:42.261Z,22.20
2022-08-26T17:35:10.694Z,22.10
2022-08-26T17:37:39.665Z,21.95
2022-08-26T17:40:09.347Z,22.07
2022-08-26T17:42:37.669Z,22.09
2022-08-26T17:45:04.609Z,22.13
2022-08-26T17:47:33.304Z,22.22
2022-08-26T17:50:01.346Z,22.14
2022-08-26T17:52:28.776Z,22.01
2022-08-26T17:55:01.932Z,22.07
2022-08-26T17:57:29.218Z,22.12
2022-08-26T17:59:56.500Z,22.18
2022-08-26T18:02:23.868Z,22.15
2022-08-26T18:04:59.439Z,22.08
2022-08-26T18:07:27.182Z,22.06
2022-08-26T18:09:53.642Z,21.94
2022-08-26T18:12:20.468Z,21.96
2022-08-26T18:14:51.902Z,21.97
2022-08-26T18:17:19.343Z,21.94
2022-08-26T18:19:46.883Z,22.05
2022-08-26T18:22:15.560Z,22.03
2022-08-26T18:24:42.263Z,22.02
2022-08-26T18:27:24.695Z,21.98
2022-08-26T18:29:51.167Z,22.01
2022-08-26T18:32:17.754Z,21.97
2022-08-26T18:34:44.196Z,21.92
2022-08-26T18:39:42.254Z,21.84
2022-08-26T18:42:08.905Z,21.70
2022-08-26T18:44:35.356Z,21.79
2022-08-26T18:47:01.802Z,21.86
2022-08-26T18:49:28.784Z,21.84
2022-08-26T18:51:55.277Z,21.83
2022-08-26T18:54:22.150Z,21.85
2022-08-26T18:56:48.669Z,21.78
2022-08-26T18:59:15.158Z,21.72
2022-08-26T19:01:42.430Z,21.69
2022-08-26T19:04:14.719Z,21.71
2022-08-26T19:06:42.574Z,21.70
2022-08-26T19:09:11.763Z,21.65
2022-08-26T19:11:42.239Z,21.62
2022-08-26T19:14:12.982Z,21.57
2022-08-26T19:16:41.273Z,21.43
2022-08-26T19:19:07.792Z,21.46
2022-08-26T19:21:35.728Z,21.50
2022-08-26T19:24:05.881Z,21.49
2022-08-26T19:26:32.819Z,21.45
2022-08-26T19:28:59.584Z,21.39
2022-08-26T19:31:26.309Z,21.42
2022-08-26T19:33:52.903Z,21.33
2022-08-26T19:36:22.446Z,21.35
2022-08-26T19:38:49.922Z,21.22
2022-08-26T19:41:19.657Z,21.30
2022-08-26T19:43:46.396Z,21.31
2022-08-26T19:46:17.195Z,21.30
2022-08-26T19:48:44.890Z,21.45
2022-08-26T19:51:19.210Z,21.43
2022-08-26T19:53:47.732Z,21.49
2022-08-26T19:56:14.994Z,21.53
2022-08-26T19:58:41.695Z,21.52
2022-08-26T20:01:09.021Z,21.40
2022-08-26T20:03:36.045Z,21.44
2022-08-26T20:06:05.139Z,21.44
2022-08-26T20:08:34.536Z,21.38
2022-08-26T20:11:04.816Z,21.43
2022-08-26T20:13:32.154Z,21.31
2022-08-26T20:15:58.870Z,21.35
2022-08-26T20:18:43.939Z,21.30
2022-08-26T20:21:29.292Z,21.35
2022-08-26T20:24:00.385Z,21.40
2022-08-26T20:26:28.646Z,21.45
2022-08-26T20:28:56.150Z,21.39
2022-08-26T20:31:24.054Z,21.25
2022-08-26T20:33:51.664Z,21.26
2022-08-26T20:36:20.418Z,21.38
2022-08-26T20:38:48.625Z,21.38
2022-08-26T20:41:15.227Z,21.24
2022-08-26T20:43:46.085Z,21.18
2022-08-26T20:46:18.016Z,21.25
2022-08-26T20:48:47.768Z,21.34
2022-08-26T20:51:14.787Z,21.27
2022-08-26T20:53:41.414Z,21.22
2022-08-26T20:56:09.330Z,21.21
2022-08-26T20:58:37.260Z,21.05
2022-08-26T21:01:07.819Z,21.09
2022-08-26T21:03:36.145Z,21.12
2022-08-26T21:06:03.549Z,21.11
2022-08-26T21:08:30.044Z,21.10
2022-08-26T21:10:59.624Z,21.12
2022-08-26T21:13:26.094Z,21.22
2022-08-26T21:15:55.867Z,21.25
2022-08-26T21:18:22.342Z,21.21
2022-08-26T21:20:48.779Z,21.18
2022-08-26T21:23:15.220Z,21.15
2022-08-26T21:25:41.780Z,21.00
2022-08-26T21:28:08.302Z,20.95
2022-08-26T21:30:37.864Z,20.94
2022-08-26T21:33:04.309Z,20.91
2022-08-26T21:35:30.723Z,20.85
2022-08-26T21:37:57.147Z,20.94
2022-08-26T21:40:23.588Z,20.91
2022-08-26T21:42:50.050Z,20.94
2022-08-26T21:45:16.938Z,20.92
2022-08-26T21:47:43.666Z,20.86
2022-08-26T21:50:10.364Z,20.85
2022-08-26T21:52:37.822Z,20.84
2022-08-26T21:55:08.826Z,20.88
2022-08-26T21:57:35.677Z,20.87
2022-08-26T22:00:04.570Z,21.00
2022-08-26T22:02:32.615Z,20.87
2022-08-26T22:04:59.106Z,20.93
2022-08-26T22:07:25.535Z,21.01
2022-08-26T22:09:52.012Z,20.95
2022-08-26T22:12:18.993Z,20.97
2022-08-26T22:14:45.652Z,20.86
2022-08-26T22:17:12.167Z,20.87
2022-08-26T22:19:45.621Z,21.07
2022-08-26T22:22:13.906Z,21.08
2022-08-26T22:24:40.351Z,21.10
2022-08-26T22:27:06.848Z,21.05
2022-08-26T22:29:33.364Z,21.03
2022-08-26T22:32:00.944Z,21.04
2022-08-26T22:34:28.033Z,20.94
2022-08-26T22:36:54.560Z,20.81
2022-08-26T22:39:24.237Z,20.87
2022-08-26T22:41:52.108Z,20.78
2022-08-26T22:44:20.461Z,20.85
2022-08-26T22:46:48.390Z,20.96
2022-08-26T22:49:16.436Z,20.90
2022-08-26T22:51:44.705Z,20.74
2022-08-26T22:54:11.458Z,20.71
2022-08-26T22:56:38.646Z,20.65
2022-08-26T22:59:06.808Z,20.66
2022-08-26T23:01:38.797Z,20.63
2022-08-26T23:04:06.853Z,20.60
2022-08-26T23:06:38.087Z,20.70
2022-08-26T23:09:06.599Z,20.62
2022-08-26T23:11:33.919Z,20.62
2022-08-26T23:14:06.198Z,20.53
2022-08-26T23:16:39.336Z,20.57
2022-08-26T23:19:06.582Z,20.61
2022-08-26T23:21:33.194Z,20.53
2022-08-26T23:23:59.742Z,20.67
2022-08-26T23:26:26.214Z,20.60
2022-08-26T23:28:53.263Z,20.57
2022-08-26T23:31:19.714Z,20.60
2022-08-26T23:34:04.803Z,20.62
2022-08-26T23:36:31.282Z,20.57
2022-08-26T23:39:02.258Z,20.56
2022-08-26T23:41:28.694Z,20.64
2022-08-26T23:43:55.176Z,20.64
2022-08-26T23:46:21.603Z,20.54
2022-08-26T23:48:48.448Z,20.36
2022-08-26T23:51:33.222Z,20.36
2022-08-26T23:53:59.709Z,20.49
2022-08-26T23:56:26.744Z,20.60
2022-08-26T23:58:53.782Z,20.63
